sensor_id;sensor_type;location;lat;lon;timestamp;noise_LAeq;noise_LA_min;noise_LA_max;noise_LA01;noise_LA95
57439;Laerm;43282;47.188;8.896;2023-03-21T00:00:56;63.40;36.91;90.36;;
57439;Laerm;43282;47.188;8.896;2023-03-21T00:03:22;40.84;35.66;46.02;;
57439;Laerm;43282;47.188;8.896;2023-03-21T00:05:48;41.42;37.88;49.58;;
57439;Laerm;43282;47.188;8.896;2023-03-21T00:08:21;40.83;37.12;45.07;;
57439;Laerm;43282;47.188;8.896;2023-03-21T00:10:46;41.15;36.91;48.92;;
57439;Laerm;43282;47.188;8.896;2023-03-21T00:13:11;46.37;37.70;63.44;;
57439;Laerm;43282;47.188;8.896;2023-03-21T00:15:37;41.38;36.45;50.14;;
57439;Laerm;43282;47.188;8.896;2023-03-21T00:18:17;42.61;34.69;58.01;;
57439;Laerm;43282;47.188;8.896;2023-03-21T00:20:42;43.14;37.52;54.54;;
57439;Laerm;43282;47.188;8.896;2023-03-21T00:23:10;50.50;39.21;68.14;;
57439;Laerm;43282;47.188;8.896;2023-03-21T00:25:35;46.60;39.46;63.44;;
57439;Laerm;43282;47.188;8.896;2023-03-21T00:28:01;42.79;39.58;50.80;;
57439;Laerm;43282;47.188;8.896;2023-03-21T00:30:26;41.46;39.46;48.84;;
57439;Laerm;43282;47.188;8.896;2023-03-21T00:32:51;41.92;39.34;49.11;;
57439;Laerm;43282;47.188;8.896;2023-03-21T00:35:17;41.53;39.08;50.19;;
57439;Laerm;43282;47.188;8.896;2023-03-21T00:37:42;41.67;39.46;46.40;;
57439;Laerm;43282;47.188;8.896;2023-03-21T00:40:07;42.95;39.81;55.65;;
57439;Laerm;43282;47.188;8.896;2023-03-21T00:42:34;42.13;39.81;47.93;;
57439;Laerm;43282;47.188;8.896;2023-03-21T00:44:59;47.82;39.70;64.05;;
57439;Laerm;43282;47.188;8.896;2023-03-21T00:47:26;46.79;40.13;63.01;;
57439;Laerm;43282;47.188;8.896;2023-03-21T00:49:51;42.15;39.81;45.45;;
57439;Laerm;43282;47.188;8.896;2023-03-21T00:52:16;43.07;39.70;51.99;;
57439;Laerm;43282;47.188;8.896;2023-03-21T00:54:42;42.61;39.34;49.84;;
57439;Laerm;43282;47.188;8.896;2023-03-21T00:57:07;42.11;36.91;50.12;;
57439;Laerm;43282;47.188;8.896;2023-03-21T00:59:32;41.59;35.04;47.20;;
57439;Laerm;43282;47.188;8.896;2023-03-21T01:01:57;40.12;34.69;46.13;;
57439;Laerm;43282;47.188;8.896;2023-03-21T01:04:24;40.36;35.01;45.97;;
57439;Laerm;43282;47.188;8.896;2023-03-21T01:06:50;42.58;36.69;49.08;;
57439;Laerm;43282;47.188;8.896;2023-03-21T01:09:16;40.54;35.59;48.04;;
57439;Laerm;43282;47.188;8.896;2023-03-21T01:11:42;40.77;35.94;52.17;;
57439;Laerm;43282;47.188;8.896;2023-03-21T01:14:08;46.01;36.20;62.58;;
57439;Laerm;43282;47.188;8.896;2023-03-21T01:16:33;43.72;37.32;56.74;;
57439;Laerm;43282;47.188;8.896;2023-03-21T01:18:59;43.15;38.21;51.37;;
57439;Laerm;43282;47.188;8.896;2023-03-21T01:21:24;45.18;37.12;59.57;;
57439;Laerm;43282;47.188;8.896;2023-03-21T01:23:50;40.94;35.66;51.50;;
57439;Laerm;43282;47.188;8.896;2023-03-21T01:26:15;41.72;35.94;51.80;;
57439;Laerm;43282;47.188;8.896;2023-03-21T01:28:41;48.33;35.36;64.06;;
57439;Laerm;43282;47.188;8.896;2023-03-21T01:31:07;41.74;36.91;52.01;;
57439;Laerm;43282;47.188;8.896;2023-03-21T01:33:33;44.19;37.52;56.62;;
57439;Laerm;43282;47.188;8.896;2023-03-21T01:35:58;44.90;37.32;62.46;;
57439;Laerm;43282;47.188;8.896;2023-03-21T01:38:25;47.14;37.88;62.84;;
57439;Laerm;43282;47.188;8.896;2023-03-21T01:40:50;40.40;36.45;45.01;;
57439;Laerm;43282;47.188;8.896;2023-03-21T01:48:34;41.24;35.94;49.38;;
57439;Laerm;43282;47.188;8.896;2023-03-21T01:51:00;43.28;36.45;60.38;;
57439;Laerm;43282;47.188;8.896;2023-03-21T01:53:27;43.49;37.12;52.77;;
57439;Laerm;43282;47.188;8.896;2023-03-21T01:56:28;48.98;36.20;67.10;;
57439;Laerm;43282;47.188;8.896;2023-03-21T01:58:46;44.88;37.88;56.22;;
57439;Laerm;43282;47.188;8.896;2023-03-21T02:01:12;47.69;39.21;56.24;;
57439;Laerm;43282;47.188;8.896;2023-03-21T02:03:40;41.68;37.12;46.63;;
57439;Laerm;43282;47.188;8.896;2023-03-21T02:06:16;48.39;38.52;66.18;;
57439;Laerm;43282;47.188;8.896;2023-03-21T02:08:43;41.56;35.94;51.26;;
57439;Laerm;43282;47.188;8.896;2023-03-21T02:11:08;51.86;39.58;65.51;;
57439;Laerm;43282;47.188;8.896;2023-03-21T02:13:34;48.08;39.46;61.80;;
57439;Laerm;43282;47.188;8.896;2023-03-21T02:16:22;48.33;39.92;61.23;;
57439;Laerm;43282;47.188;8.896;2023-03-21T02:18:57;43.60;39.58;57.87;;
57439;Laerm;43282;47.188;8.896;2023-03-21T02:21:39;47.04;40.33;58.78;;
57439;Laerm;43282;47.188;8.896;2023-03-21T02:37:31;49.26;40.53;60.59;;
57439;Laerm;43282;47.188;8.896;2023-03-21T02:45:18;43.93;37.88;55.27;;
57439;Laerm;43282;47.188;8.896;2023-03-21T02:47:50;47.32;38.52;60.49;;
57439;Laerm;43282;47.188;8.896;2023-03-21T02:52:54;46.46;35.94;62.18;;
57439;Laerm;43282;47.188;8.896;2023-03-21T02:55:25;45.38;37.32;57.22;;
57439;Laerm;43282;47.188;8.896;2023-03-21T02:57:54;49.66;38.67;65.52;;
57439;Laerm;43282;47.188;8.896;2023-03-21T03:00:21;44.30;37.32;58.76;;
57439;Laerm;43282;47.188;8.896;2023-03-21T03:02:47;46.53;37.70;58.43;;
57439;Laerm;43282;47.188;8.896;2023-03-21T03:05:21;46.53;37.12;57.48;;
57439;Laerm;43282;47.188;8.896;2023-03-21T03:13:14;50.56;39.34;69.86;;
57439;Laerm;43282;47.188;8.896;2023-03-21T03:18:28;46.99;37.12;60.89;;
57439;Laerm;43282;47.188;8.896;2023-03-21T03:21:16;46.78;38.81;58.63;;
57439;Laerm;43282;47.188;8.896;2023-03-21T03:26:13;48.39;36.69;63.02;;
57439;Laerm;43282;47.188;8.896;2023-03-21T03:28:41;48.59;41.06;66.53;;
57439;Laerm;43282;47.188;8.896;2023-03-21T03:31:09;48.59;38.74;64.53;;
57439;Laerm;43282;47.188;8.896;2023-03-21T03:33:37;44.09;40.03;57.38;;
57439;Laerm;43282;47.188;8.896;2023-03-21T03:36:05;47.52;40.53;64.66;;
57439;Laerm;43282;47.188;8.896;2023-03-21T03:38:33;50.27;41.61;67.98;;
57439;Laerm;43282;47.188;8.896;2023-03-21T03:41:01;50.75;39.70;64.25;;
57439;Laerm;43282;47.188;8.896;2023-03-21T03:43:36;48.05;40.13;56.96;;
57439;Laerm;43282;47.188;8.896;2023-03-21T03:46:15;52.21;38.67;66.56;;
57439;Laerm;43282;47.188;8.896;2023-03-21T03:48:43;51.22;41.53;66.62;;
57439;Laerm;43282;47.188;8.896;2023-03-21T03:51:16;49.79;41.82;62.99;;
57439;Laerm;43282;47.188;8.896;2023-03-21T03:53:44;54.13;41.88;69.85;;
57439;Laerm;43282;47.188;8.896;2023-03-21T03:56:11;51.55;41.38;66.03;;
57439;Laerm;43282;47.188;8.896;2023-03-21T03:58:37;50.01;42.41;63.98;;
57439;Laerm;43282;47.188;8.896;2023-03-21T04:01:03;51.52;43.04;64.38;;
57439;Laerm;43282;47.188;8.896;2023-03-21T04:03:29;49.42;42.76;61.29;;
57439;Laerm;43282;47.188;8.896;2023-03-21T04:05:54;49.42;43.24;59.70;;
57439;Laerm;43282;47.188;8.896;2023-03-21T04:08:20;55.10;43.72;71.76;;
57439;Laerm;43282;47.188;8.896;2023-03-21T04:10:47;53.74;45.48;63.35;;
57439;Laerm;43282;47.188;8.896;2023-03-21T04:13:12;58.47;49.32;69.52;;
57439;Laerm;43282;47.188;8.896;2023-03-21T04:15:38;58.24;50.53;70.40;;
57439;Laerm;43282;47.188;8.896;2023-03-21T04:18:03;54.07;44.69;65.60;;
57439;Laerm;43282;47.188;8.896;2023-03-21T04:20:28;55.52;45.23;68.88;;
57439;Laerm;43282;47.188;8.896;2023-03-21T04:22:54;57.55;44.47;68.81;;
57439;Laerm;43282;47.188;8.896;2023-03-21T04:25:20;56.53;45.14;65.60;;
57439;Laerm;43282;47.188;8.896;2023-03-21T04:27:45;54.49;43.63;65.84;;
57439;Laerm;43282;47.188;8.896;2023-03-21T04:30:12;51.37;43.72;62.92;;
57439;Laerm;43282;47.188;8.896;2023-03-21T04:32:38;54.84;45.39;67.59;;
57439;Laerm;43282;47.188;8.896;2023-03-21T04:35:07;50.83;45.42;64.38;;
57439;Laerm;43282;47.188;8.896;2023-03-21T04:37:33;53.46;45.36;66.57;;
57439;Laerm;43282;47.188;8.896;2023-03-21T04:39:59;52.13;44.27;62.13;;
57439;Laerm;43282;47.188;8.896;2023-03-21T04:42:24;54.97;45.54;65.65;;
57439;Laerm;43282;47.188;8.896;2023-03-21T04:44:50;57.29;47.18;70.40;;
57439;Laerm;43282;47.188;8.896;2023-03-21T04:47:16;57.87;49.47;72.03;;
57439;Laerm;43282;47.188;8.896;2023-03-21T04:49:44;58.07;47.52;71.27;;
57439;Laerm;43282;47.188;8.896;2023-03-21T04:52:12;58.47;47.48;73.35;;
57439;Laerm;43282;47.188;8.896;2023-03-21T04:54:37;57.37;46.50;73.46;;
57439;Laerm;43282;47.188;8.896;2023-03-21T04:57:02;58.42;47.95;72.73;;
57439;Laerm;43282;47.188;8.896;2023-03-21T04:59:28;54.97;46.91;67.21;;
57439;Laerm;43282;47.188;8.896;2023-03-21T05:01:53;57.49;48.96;66.88;;
57439;Laerm;43282;47.188;8.896;2023-03-21T05:04:20;56.78;47.34;68.38;;
57439;Laerm;43282;47.188;8.896;2023-03-21T05:06:46;56.31;47.40;66.44;;
57439;Laerm;43282;47.188;8.896;2023-03-21T05:09:11;57.56;47.83;71.10;;
57439;Laerm;43282;47.188;8.896;2023-03-21T05:11:38;57.32;48.31;67.24;;
57439;Laerm;43282;47.188;8.896;2023-03-21T05:14:05;57.76;47.84;68.88;;
57439;Laerm;43282;47.188;8.896;2023-03-21T05:16:31;61.14;48.25;76.90;;
57439;Laerm;43282;47.188;8.896;2023-03-21T05:18:57;56.74;47.00;68.10;;
57439;Laerm;43282;47.188;8.896;2023-03-21T05:21:23;58.15;47.20;67.94;;
57439;Laerm;43282;47.188;8.896;2023-03-21T05:23:49;56.34;48.84;69.63;;
57439;Laerm;43282;47.188;8.896;2023-03-21T05:26:22;58.35;48.32;70.86;;
57439;Laerm;43282;47.188;8.896;2023-03-21T05:28:48;56.67;46.84;67.92;;
57439;Laerm;43282;47.188;8.896;2023-03-21T05:31:14;58.16;47.54;68.42;;
57439;Laerm;43282;47.188;8.896;2023-03-21T05:33:41;58.26;46.79;69.25;;
57439;Laerm;43282;47.188;8.896;2023-03-21T05:36:06;59.91;47.84;72.50;;
57439;Laerm;43282;47.188;8.896;2023-03-21T05:38:32;63.21;48.83;81.02;;
57439;Laerm;43282;47.188;8.896;2023-03-21T05:40:57;57.75;46.89;68.29;;
57439;Laerm;43282;47.188;8.896;2023-03-21T05:43:22;60.00;50.69;69.72;;
57439;Laerm;43282;47.188;8.896;2023-03-21T05:45:48;61.59;55.07;72.29;;
57439;Laerm;43282;47.188;8.896;2023-03-21T05:48:13;66.10;54.08;80.83;;
57439;Laerm;43282;47.188;8.896;2023-03-21T05:50:38;60.53;54.30;68.98;;
57439;Laerm;43282;47.188;8.896;2023-03-21T05:53:04;62.16;52.89;77.63;;
57439;Laerm;43282;47.188;8.896;2023-03-21T05:55:29;59.63;51.67;70.49;;
57439;Laerm;43282;47.188;8.896;2023-03-21T05:57:54;59.72;52.06;69.55;;
57439;Laerm;43282;47.188;8.896;2023-03-21T06:00:20;60.24;51.81;69.77;;
57439;Laerm;43282;47.188;8.896;2023-03-21T06:02:46;60.69;52.54;68.19;;
57439;Laerm;43282;47.188;8.896;2023-03-21T06:05:11;61.80;54.29;72.85;;
57439;Laerm;43282;47.188;8.896;2023-03-21T06:07:36;63.20;55.31;74.51;;
57439;Laerm;43282;47.188;8.896;2023-03-21T06:10:02;62.94;53.47;76.87;;
57439;Laerm;43282;47.188;8.896;2023-03-21T06:12:28;62.42;55.94;70.86;;
57439;Laerm;43282;47.188;8.896;2023-03-21T06:14:53;60.89;53.51;68.72;;
57439;Laerm;43282;47.188;8.896;2023-03-21T06:17:19;63.74;56.07;73.98;;
57439;Laerm;43282;47.188;8.896;2023-03-21T06:19:44;61.51;53.11;72.53;;
57439;Laerm;43282;47.188;8.896;2023-03-21T06:22:10;59.95;52.22;70.65;;
57439;Laerm;43282;47.188;8.896;2023-03-21T06:24:35;62.76;53.52;76.80;;
57439;Laerm;43282;47.188;8.896;2023-03-21T06:27:00;59.46;52.11;70.03;;
57439;Laerm;43282;47.188;8.896;2023-03-21T06:29:26;61.14;52.13;74.03;;
57439;Laerm;43282;47.188;8.896;2023-03-21T06:31:51;61.22;51.15;75.84;;
57439;Laerm;43282;47.188;8.896;2023-03-21T06:34:16;60.89;52.52;75.76;;
57439;Laerm;43282;47.188;8.896;2023-03-21T06:36:41;59.28;51.63;73.18;;
57439;Laerm;43282;47.188;8.896;2023-03-21T06:39:09;58.48;50.63;67.49;;
57439;Laerm;43282;47.188;8.896;2023-03-21T06:41:34;62.68;56.22;74.46;;
57439;Laerm;43282;47.188;8.896;2023-03-21T06:44:00;62.92;54.96;73.73;;
57439;Laerm;43282;47.188;8.896;2023-03-21T06:46:25;61.24;54.11;76.68;;
57439;Laerm;43282;47.188;8.896;2023-03-21T06:48:51;61.56;53.48;76.59;;
57439;Laerm;43282;47.188;8.896;2023-03-21T06:51:16;59.86;51.89;67.01;;
57439;Laerm;43282;47.188;8.896;2023-03-21T06:53:41;60.00;52.05;73.23;;
57439;Laerm;43282;47.188;8.896;2023-03-21T06:56:08;62.08;52.76;75.05;;
57439;Laerm;43282;47.188;8.896;2023-03-21T06:58:34;60.91;54.12;69.18;;
57439;Laerm;43282;47.188;8.896;2023-03-21T07:01:00;64.12;55.55;75.91;;
57439;Laerm;43282;47.188;8.896;2023-03-21T07:03:27;62.06;55.71;70.61;;
57439;Laerm;43282;47.188;8.896;2023-03-21T07:05:52;61.80;51.68;71.91;;
57439;Laerm;43282;47.188;8.896;2023-03-21T07:08:18;62.26;54.45;75.71;;
57439;Laerm;43282;47.188;8.896;2023-03-21T07:10:43;61.48;52.71;74.27;;
57439;Laerm;43282;47.188;8.896;2023-03-21T07:13:10;61.62;52.76;78.38;;
57439;Laerm;43282;47.188;8.896;2023-03-21T07:15:35;58.58;50.48;71.23;;
57439;Laerm;43282;47.188;8.896;2023-03-21T07:18:03;56.99;48.29;68.52;;
57439;Laerm;43282;47.188;8.896;2023-03-21T07:20:28;58.49;45.91;73.75;;
57439;Laerm;43282;47.188;8.896;2023-03-21T07:22:53;60.45;46.07;74.93;;
57439;Laerm;43282;47.188;8.896;2023-03-21T07:25:18;58.00;45.75;70.39;;
57439;Laerm;43282;47.188;8.896;2023-03-21T07:27:44;60.36;47.77;72.85;;
57439;Laerm;43282;47.188;8.896;2023-03-21T07:30:10;59.96;47.34;74.83;;
57439;Laerm;43282;47.188;8.896;2023-03-21T07:32:36;56.98;44.51;72.86;;
57439;Laerm;43282;47.188;8.896;2023-03-21T07:35:07;59.83;45.42;78.38;;
57439;Laerm;43282;47.188;8.896;2023-03-21T07:37:34;59.33;44.58;74.81;;
57439;Laerm;43282;47.188;8.896;2023-03-21T07:40:00;56.58;44.83;66.66;;
57439;Laerm;43282;47.188;8.896;2023-03-21T07:42:25;59.51;46.82;75.59;;
57439;Laerm;43282;47.188;8.896;2023-03-21T07:44:51;61.01;44.15;77.17;;
57439;Laerm;43282;47.188;8.896;2023-03-21T07:47:19;57.11;44.62;66.44;;
57439;Laerm;43282;47.188;8.896;2023-03-21T07:49:44;57.53;45.66;68.80;;
57439;Laerm;43282;47.188;8.896;2023-03-21T07:52:10;55.96;43.04;67.26;;
57439;Laerm;43282;47.188;8.896;2023-03-21T07:54:35;58.30;44.19;70.62;;
57439;Laerm;43282;47.188;8.896;2023-03-21T07:57:00;55.79;43.68;68.25;;
57439;Laerm;43282;47.188;8.896;2023-03-21T07:59:25;55.95;44.23;71.62;;
57439;Laerm;43282;47.188;8.896;2023-03-21T08:01:51;61.32;46.48;74.78;;
57439;Laerm;43282;47.188;8.896;2023-03-21T08:04:16;60.89;47.04;82.47;;
57439;Laerm;43282;47.188;8.896;2023-03-21T08:06:41;57.52;45.33;65.61;;
57439;Laerm;43282;47.188;8.896;2023-03-21T08:09:07;60.37;48.08;76.24;;
57439;Laerm;43282;47.188;8.896;2023-03-21T08:11:32;54.89;44.27;65.98;;
57439;Laerm;43282;47.188;8.896;2023-03-21T08:13:58;59.96;44.58;77.06;;
57439;Laerm;43282;47.188;8.896;2023-03-21T08:16:23;55.89;44.79;64.10;;
57439;Laerm;43282;47.188;8.896;2023-03-21T08:18:49;57.64;43.68;70.21;;
57439;Laerm;43282;47.188;8.896;2023-03-21T08:21:14;62.17;43.86;79.11;;
57439;Laerm;43282;47.188;8.896;2023-03-21T08:23:40;55.96;42.98;70.11;;
57439;Laerm;43282;47.188;8.896;2023-03-21T08:26:05;57.25;44.73;66.64;;
57439;Laerm;43282;47.188;8.896;2023-03-21T08:28:30;58.86;45.17;75.67;;
57439;Laerm;43282;47.188;8.896;2023-03-21T08:30:55;55.40;45.23;66.78;;
57439;Laerm;43282;47.188;8.896;2023-03-21T08:33:21;60.74;43.54;81.05;;
57439;Laerm;43282;47.188;8.896;2023-03-21T08:35:46;55.97;44.11;69.80;;
57439;Laerm;43282;47.188;8.896;2023-03-21T08:38:12;58.26;44.39;71.58;;
57439;Laerm;43282;47.188;8.896;2023-03-21T08:40:37;56.39;43.99;65.61;;
57439;Laerm;43282;47.188;8.896;2023-03-21T08:43:03;59.67;45.17;74.80;;
57439;Laerm;43282;47.188;8.896;2023-03-21T08:45:28;60.86;46.89;72.56;;
57439;Laerm;43282;47.188;8.896;2023-03-21T08:47:54;56.77;43.58;65.05;;
57439;Laerm;43282;47.188;8.896;2023-03-21T08:50:20;57.52;44.15;68.53;;
57439;Laerm;43282;47.188;8.896;2023-03-21T08:52:46;58.37;45.66;73.13;;
57439;Laerm;43282;47.188;8.896;2023-03-21T08:55:12;59.06;45.23;72.92;;
57439;Laerm;43282;47.188;8.896;2023-03-21T08:57:37;63.07;43.72;79.98;;
57439;Laerm;43282;47.188;8.896;2023-03-21T09:00:07;59.23;45.51;71.60;;
57439;Laerm;43282;47.188;8.896;2023-03-21T09:02:37;55.59;42.35;67.98;;
57439;Laerm;43282;47.188;8.896;2023-03-21T09:05:03;59.51;42.93;75.56;;
57439;Laerm;43282;47.188;8.896;2023-03-21T09:07:30;55.18;43.04;65.81;;
57439;Laerm;43282;47.188;8.896;2023-03-21T09:09:58;59.67;44.11;72.76;;
57439;Laerm;43282;47.188;8.896;2023-03-21T09:12:24;60.63;44.80;75.18;;
57439;Laerm;43282;47.188;8.896;2023-03-21T09:14:49;55.99;43.99;68.19;;
57439;Laerm;43282;47.188;8.896;2023-03-21T09:17:15;57.54;43.09;70.33;;
57439;Laerm;43282;47.188;8.896;2023-03-21T09:19:40;58.73;43.34;76.64;;
57439;Laerm;43282;47.188;8.896;2023-03-21T09:22:06;60.48;42.59;79.29;;
57439;Laerm;43282;47.188;8.896;2023-03-21T09:24:38;59.89;43.72;76.45;;
57439;Laerm;43282;47.188;8.896;2023-03-21T09:27:03;61.34;46.33;78.77;;
57439;Laerm;43282;47.188;8.896;2023-03-21T09:29:29;61.56;44.15;71.66;;
57439;Laerm;43282;47.188;8.896;2023-03-21T09:31:56;60.10;43.58;71.12;;
57439;Laerm;43282;47.188;8.896;2023-03-21T09:34:21;59.97;43.86;72.43;;
57439;Laerm;43282;47.188;8.896;2023-03-21T09:36:47;59.57;45.97;73.64;;
57439;Laerm;43282;47.188;8.896;2023-03-21T09:39:15;59.45;42.88;76.46;;
57439;Laerm;43282;47.188;8.896;2023-03-21T09:42:01;60.09;42.59;70.90;;
57439;Laerm;43282;47.188;8.896;2023-03-21T09:49:41;54.68;42.88;65.65;;
57439;Laerm;43282;47.188;8.896;2023-03-21T09:52:11;61.90;43.54;77.47;;
57439;Laerm;43282;47.188;8.896;2023-03-21T09:54:41;58.19;43.34;68.33;;
57439;Laerm;43282;47.188;8.896;2023-03-21T09:59:44;59.83;45.14;73.64;;
57439;Laerm;43282;47.188;8.896;2023-03-21T10:02:44;62.89;46.18;78.39;;
57439;Laerm;43282;47.188;8.896;2023-03-21T10:05:08;58.52;47.20;75.10;;
57439;Laerm;43282;47.188;8.896;2023-03-21T10:07:38;62.02;44.62;79.55;;
57439;Laerm;43282;47.188;8.896;2023-03-21T10:10:09;56.57;45.80;65.75;;
57439;Laerm;43282;47.188;8.896;2023-03-21T10:12:37;56.90;48.15;67.29;;
57439;Laerm;43282;47.188;8.896;2023-03-21T10:15:02;64.23;48.61;81.28;;
57439;Laerm;43282;47.188;8.896;2023-03-21T10:17:36;60.56;47.63;76.08;;
57439;Laerm;43282;47.188;8.896;2023-03-21T10:23:12;61.08;48.76;76.36;;
57439;Laerm;43282;47.188;8.896;2023-03-21T10:25:39;56.95;45.60;80.80;;
57439;Laerm;43282;47.188;8.896;2023-03-21T10:28:06;62.12;45.72;73.31;;
57439;Laerm;43282;47.188;8.896;2023-03-21T10:30:40;59.32;44.27;74.22;;
57439;Laerm;43282;47.188;8.896;2023-03-21T10:33:12;59.87;44.19;76.98;;
57439;Laerm;43282;47.188;8.896;2023-03-21T10:35:38;59.87;44.19;79.99;;
57439;Laerm;43282;47.188;8.896;2023-03-21T10:38:05;57.45;44.07;74.11;;
57439;Laerm;43282;47.188;8.896;2023-03-21T10:40:34;58.46;44.15;77.71;;
57439;Laerm;43282;47.188;8.896;2023-03-21T10:45:44;60.81;43.99;76.00;;
57439;Laerm;43282;47.188;8.896;2023-03-21T10:48:10;59.20;47.76;69.51;;
57439;Laerm;43282;47.188;8.896;2023-03-21T10:50:35;55.51;43.90;66.11;;
57439;Laerm;43282;47.188;8.896;2023-03-21T10:53:01;59.03;43.90;77.11;;
57439;Laerm;43282;47.188;8.896;2023-03-21T10:55:30;57.25;45.04;66.99;;
57439;Laerm;43282;47.188;8.896;2023-03-21T10:58:01;58.21;43.24;75.02;;
57439;Laerm;43282;47.188;8.896;2023-03-21T11:00:28;58.83;44.54;72.96;;
57439;Laerm;43282;47.188;8.896;2023-03-21T11:02:55;56.67;43.63;65.20;;
57439;Laerm;43282;47.188;8.896;2023-03-21T11:05:26;61.87;45.45;75.53;;
57439;Laerm;43282;47.188;8.896;2023-03-21T11:07:58;58.38;43.94;79.38;;
57439;Laerm;43282;47.188;8.896;2023-03-21T11:10:28;57.99;43.72;70.17;;
57439;Laerm;43282;47.188;8.896;2023-03-21T11:12:55;60.62;43.90;77.60;;
57439;Laerm;43282;47.188;8.896;2023-03-21T11:15:24;56.34;43.86;68.16;;
57439;Laerm;43282;47.188;8.896;2023-03-21T11:17:51;57.01;47.96;68.70;;
57439;Laerm;43282;47.188;8.896;2023-03-21T11:20:17;55.89;42.53;65.90;;
57439;Laerm;43282;47.188;8.896;2023-03-21T11:22:43;53.17;42.09;69.79;;
57439;Laerm;43282;47.188;8.896;2023-03-21T11:25:14;54.62;43.58;67.21;;
57439;Laerm;43282;47.188;8.896;2023-03-21T11:27:51;47.85;40.80;61.37;;
57439;Laerm;43282;47.188;8.896;2023-03-21T11:30:20;53.62;42.03;65.82;;
57439;Laerm;43282;47.188;8.896;2023-03-21T11:32:49;54.52;41.75;69.16;;
57439;Laerm;43282;47.188;8.896;2023-03-21T11:35:17;58.74;42.98;76.40;;
57439;Laerm;43282;47.188;8.896;2023-03-21T11:37:45;54.24;42.53;68.00;;
57439;Laerm;43282;47.188;8.896;2023-03-21T11:42:50;55.25;43.29;65.68;;
57439;Laerm;43282;47.188;8.896;2023-03-21T11:47:41;57.27;42.65;72.48;;
57439;Laerm;43282;47.188;8.896;2023-03-21T11:50:13;59.80;43.49;74.71;;
57439;Laerm;43282;47.188;8.896;2023-03-21T11:52:42;59.65;43.39;74.18;;
57439;Laerm;43282;47.188;8.896;2023-03-21T11:57:43;57.16;44.07;72.91;;
57439;Laerm;43282;47.188;8.896;2023-03-21T12:05:33;59.42;42.98;73.78;;
57439;Laerm;43282;47.188;8.896;2023-03-21T12:08:08;59.81;45.27;73.79;;
57439;Laerm;43282;47.188;8.896;2023-03-21T12:10:45;61.36;43.81;77.32;;
57439;Laerm;43282;47.188;8.896;2023-03-21T12:16:02;58.39;45.86;75.98;;
57439;Laerm;43282;47.188;8.896;2023-03-21T12:23:45;59.70;45.57;73.14;;
57439;Laerm;43282;47.188;8.896;2023-03-21T12:26:25;59.67;43.99;72.80;;
57439;Laerm;43282;47.188;8.896;2023-03-21T12:33:48;56.61;44.15;66.68;;
57439;Laerm;43282;47.188;8.896;2023-03-21T12:36:30;54.41;42.98;65.71;;
57439;Laerm;43282;47.188;8.896;2023-03-21T12:41:42;61.68;44.19;78.27;;
57439;Laerm;43282;47.188;8.896;2023-03-21T12:44:14;57.83;41.96;74.51;;
57439;Laerm;43282;47.188;8.896;2023-03-21T12:49:11;59.62;44.65;72.83;;
57439;Laerm;43282;47.188;8.896;2023-03-21T12:51:40;55.92;44.03;65.63;;
57439;Laerm;43282;47.188;8.896;2023-03-21T12:54:27;57.59;44.76;71.03;;
57439;Laerm;43282;47.188;8.896;2023-03-21T12:57:01;61.83;45.17;78.24;;
57439;Laerm;43282;47.188;8.896;2023-03-21T12:59:33;56.04;44.03;68.34;;
57439;Laerm;43282;47.188;8.896;2023-03-21T13:02:14;56.10;44.58;76.12;;
57439;Laerm;43282;47.188;8.896;2023-03-21T13:07:16;57.24;45.14;71.13;;
57439;Laerm;43282;47.188;8.896;2023-03-21T13:09:44;61.89;44.69;81.75;;
57439;Laerm;43282;47.188;8.896;2023-03-21T13:12:19;58.37;43.55;76.42;;
57439;Laerm;43282;47.188;8.896;2023-03-21T13:14:55;55.78;44.03;69.97;;
57439;Laerm;43282;47.188;8.896;2023-03-21T13:17:40;59.84;45.30;72.48;;
57439;Laerm;43282;47.188;8.896;2023-03-21T13:20:12;54.21;43.54;64.38;;
57439;Laerm;43282;47.188;8.896;2023-03-21T13:22:44;55.25;43.68;67.17;;
57439;Laerm;43282;47.188;8.896;2023-03-21T13:25:16;60.84;45.11;76.31;;
57439;Laerm;43282;47.188;8.896;2023-03-21T13:27:42;57.46;44.47;70.69;;
57439;Laerm;43282;47.188;8.896;2023-03-21T13:32:39;55.35;43.94;65.77;;
57439;Laerm;43282;47.188;8.896;2023-03-21T13:37:37;59.31;43.19;73.25;;
57439;Laerm;43282;47.188;8.896;2023-03-21T13:40:04;56.47;45.86;65.14;;
57439;Laerm;43282;47.188;8.896;2023-03-21T13:42:35;58.28;44.23;73.52;;
57439;Laerm;43282;47.188;8.896;2023-03-21T13:45:08;56.37;44.83;68.53;;
57439;Laerm;43282;47.188;8.896;2023-03-21T13:47:38;59.64;44.58;73.85;;
57439;Laerm;43282;47.188;8.896;2023-03-21T13:50:19;57.69;44.62;75.34;;
57439;Laerm;43282;47.188;8.896;2023-03-21T13:55:26;60.59;44.03;77.15;;
57439;Laerm;43282;47.188;8.896;2023-03-21T13:57:52;58.88;44.31;74.52;;
57439;Laerm;43282;47.188;8.896;2023-03-21T14:00:27;61.83;43.81;77.04;;
57439;Laerm;43282;47.188;8.896;2023-03-21T14:05:20;58.40;43.44;70.24;;
57439;Laerm;43282;47.188;8.896;2023-03-21T14:07:47;62.23;44.27;76.44;;
57439;Laerm;43282;47.188;8.896;2023-03-21T14:10:17;53.33;42.59;65.34;;
57439;Laerm;43282;47.188;8.896;2023-03-21T14:12:44;61.22;43.54;76.04;;
57439;Laerm;43282;47.188;8.896;2023-03-21T14:17:47;54.70;43.39;64.53;;
57439;Laerm;43282;47.188;8.896;2023-03-21T14:20:34;57.06;43.68;71.07;;
57439;Laerm;43282;47.188;8.896;2023-03-21T14:23:02;55.59;44.15;67.35;;
57439;Laerm;43282;47.188;8.896;2023-03-21T14:25:31;62.55;45.14;76.90;;
57439;Laerm;43282;47.188;8.896;2023-03-21T14:27:58;57.24;43.99;72.29;;
57439;Laerm;43282;47.188;8.896;2023-03-21T14:30:25;56.82;44.80;79.83;;
57439;Laerm;43282;47.188;8.896;2023-03-21T14:33:34;60.35;44.87;75.18;;
57439;Laerm;43282;47.188;8.896;2023-03-21T14:35:40;57.69;43.72;73.23;;
57439;Laerm;43282;47.188;8.896;2023-03-21T14:38:06;62.42;44.83;77.07;;
57439;Laerm;43282;47.188;8.896;2023-03-21T14:40:33;53.40;43.44;67.11;;
57439;Laerm;43282;47.188;8.896;2023-03-21T14:43:02;60.22;43.68;74.33;;
57439;Laerm;43282;47.188;8.896;2023-03-21T14:45:28;56.06;43.90;65.08;;
57439;Laerm;43282;47.188;8.896;2023-03-21T14:50:23;58.31;42.93;71.18;;
57439;Laerm;43282;47.188;8.896;2023-03-21T14:52:52;56.78;45.07;72.82;;
57439;Laerm;43282;47.188;8.896;2023-03-21T14:55:17;60.01;44.54;73.15;;
57439;Laerm;43282;47.188;8.896;2023-03-21T14:57:43;61.46;45.39;77.61;;
57439;Laerm;43282;47.188;8.896;2023-03-21T15:00:11;55.34;43.29;71.31;;
57439;Laerm;43282;47.188;8.896;2023-03-21T15:02:41;58.21;46.80;70.08;;
57439;Laerm;43282;47.188;8.896;2023-03-21T15:05:18;58.50;46.13;72.97;;
57439;Laerm;43282;47.188;8.896;2023-03-21T15:07:51;61.18;45.33;76.62;;
57439;Laerm;43282;47.188;8.896;2023-03-21T15:10:17;56.63;44.03;68.68;;
57439;Laerm;43282;47.188;8.896;2023-03-21T15:12:52;57.70;44.90;70.59;;
57439;Laerm;43282;47.188;8.896;2023-03-21T15:15:18;56.66;44.39;68.66;;
57439;Laerm;43282;47.188;8.896;2023-03-21T15:17:44;56.06;45.42;68.04;;
57439;Laerm;43282;47.188;8.896;2023-03-21T15:20:13;57.40;45.36;66.68;;
57439;Laerm;43282;47.188;8.896;2023-03-21T15:22:40;59.86;45.83;73.92;;
57439;Laerm;43282;47.188;8.896;2023-03-21T15:25:08;59.76;45.80;76.03;;
57439;Laerm;43282;47.188;8.896;2023-03-21T15:27:39;60.35;48.67;74.99;;